sensor_id;sensor_type;location;lat;lon;timestamp;P1;durP1;ratioP1;P2;durP2;ratioP2
80852;SDS011;70270;43.434;28.338;2024-03-17T00:02:29;33.92;;;20.48;;
80852;SDS011;70270;43.434;28.338;2024-03-17T00:05:14;35.95;;;23.77;;
80852;SDS011;70270;43.434;28.338;2024-03-17T00:07:59;37.72;;;24.15;;
80852;SDS011;70270;43.434;28.338;2024-03-17T00:10:44;37.90;;;24.33;;
80852;SDS011;70270;43.434;28.338;2024-03-17T00:13:33;40.28;;;24.88;;
80852;SDS011;70270;43.434;28.338;2024-03-17T00:16:18;42.05;;;24.85;;
80852;SDS011;70270;43.434;28.338;2024-03-17T00:19:02;35.17;;;23.42;;
80852;SDS011;70270;43.434;28.338;2024-03-17T00:21:46;38.00;;;23.90;;
80852;SDS011;70270;43.434;28.338;2024-03-17T00:24:31;37.50;;;23.63;;
80852;SDS011;70270;43.434;28.338;2024-03-17T00:27:18;43.75;;;25.15;;
80852;SDS011;70270;43.434;28.338;2024-03-17T00:30:03;43.65;;;25.13;;
80852;SDS011;70270;43.434;28.338;2024-03-17T00:32:53;40.92;;;24.70;;
80852;SDS011;70270;43.434;28.338;2024-03-17T00:35:37;43.88;;;26.63;;
80852;SDS011;70270;43.434;28.338;2024-03-17T00:38:22;44.63;;;25.77;;
80852;SDS011;70270;43.434;28.338;2024-03-17T00:41:06;44.15;;;25.45;;
80852;SDS011;70270;43.434;28.338;2024-03-17T00:43:50;42.10;;;25.58;;
80852;SDS011;70270;43.434;28.338;2024-03-17T00:46:36;45.25;;;25.50;;
80852;SDS011;70270;43.434;28.338;2024-03-17T00:49:20;42.72;;;26.80;;
80852;SDS011;70270;43.434;28.338;2024-03-17T00:52:05;47.22;;;26.67;;
80852;SDS011;70270;43.434;28.338;2024-03-17T00:54:50;44.60;;;26.15;;
80852;SDS011;70270;43.434;28.338;2024-03-17T00:57:34;49.88;;;26.80;;
80852;SDS011;70270;43.434;28.338;2024-03-17T01:00:21;42.40;;;27.00;;
80852;SDS011;70270;43.434;28.338;2024-03-17T01:03:07;47.13;;;27.83;;
80852;SDS011;70270;43.434;28.338;2024-03-17T01:05:51;45.65;;;26.35;;
80852;SDS011;70270;43.434;28.338;2024-03-17T01:08:36;44.30;;;26.33;;
80852;SDS011;70270;43.434;28.338;2024-03-17T01:11:21;55.38;;;27.83;;
80852;SDS011;70270;43.434;28.338;2024-03-17T01:14:05;45.40;;;26.10;;
80852;SDS011;70270;43.434;28.338;2024-03-17T01:16:51;42.28;;;25.35;;
80852;SDS011;70270;43.434;28.338;2024-03-17T01:19:36;44.60;;;25.65;;
80852;SDS011;70270;43.434;28.338;2024-03-17T01:22:20;45.95;;;26.35;;
80852;SDS011;70270;43.434;28.338;2024-03-17T01:25:06;42.25;;;24.15;;
80852;SDS011;70270;43.434;28.338;2024-03-17T01:27:53;41.80;;;25.38;;
80852;SDS011;70270;43.434;28.338;2024-03-17T01:30:37;42.92;;;25.55;;
80852;SDS011;70270;43.434;28.338;2024-03-17T01:33:22;41.08;;;24.70;;
80852;SDS011;70270;43.434;28.338;2024-03-17T01:36:06;38.53;;;24.08;;
80852;SDS011;70270;43.434;28.338;2024-03-17T01:38:51;52.72;;;28.38;;
80852;SDS011;70270;43.434;28.338;2024-03-17T01:41:35;53.72;;;28.50;;
80852;SDS011;70270;43.434;28.338;2024-03-17T01:44:27;53.70;;;28.33;;
80852;SDS011;70270;43.434;28.338;2024-03-17T01:47:13;45.13;;;26.88;;
80852;SDS011;70270;43.434;28.338;2024-03-17T01:49:57;45.53;;;25.98;;
80852;SDS011;70270;43.434;28.338;2024-03-17T01:52:42;48.05;;;26.73;;
80852;SDS011;70270;43.434;28.338;2024-03-17T01:55:26;50.95;;;29.20;;
80852;SDS011;70270;43.434;28.338;2024-03-17T01:58:12;44.97;;;26.13;;
80852;SDS011;70270;43.434;28.338;2024-03-17T02:00:57;41.42;;;23.35;;
80852;SDS011;70270;43.434;28.338;2024-03-17T02:03:42;47.97;;;25.17;;
80852;SDS011;70270;43.434;28.338;2024-03-17T02:06:27;45.53;;;24.55;;
80852;SDS011;70270;43.434;28.338;2024-03-17T02:09:11;40.28;;;23.80;;
80852;SDS011;70270;43.434;28.338;2024-03-17T02:11:56;45.50;;;24.52;;
80852;SDS011;70270;43.434;28.338;2024-03-17T02:14:41;40.67;;;23.92;;
80852;SDS011;70270;43.434;28.338;2024-03-17T02:17:27;38.58;;;23.50;;
80852;SDS011;70270;43.434;28.338;2024-03-17T02:20:12;46.25;;;24.98;;
80852;SDS011;70270;43.434;28.338;2024-03-17T02:22:57;51.05;;;24.92;;
80852;SDS011;70270;43.434;28.338;2024-03-17T02:25:42;43.15;;;24.65;;
80852;SDS011;70270;43.434;28.338;2024-03-17T02:28:27;43.42;;;23.83;;
80852;SDS011;70270;43.434;28.338;2024-03-17T02:31:12;42.97;;;23.02;;
80852;SDS011;70270;43.434;28.338;2024-03-17T02:33:59;44.30;;;24.98;;
80852;SDS011;70270;43.434;28.338;2024-03-17T02:36:43;39.70;;;23.85;;
80852;SDS011;70270;43.434;28.338;2024-03-17T02:39:31;38.13;;;23.55;;
80852;SDS011;70270;43.434;28.338;2024-03-17T02:42:18;37.92;;;23.05;;
80852;SDS011;70270;43.434;28.338;2024-03-17T02:45:03;41.17;;;23.67;;
80852;SDS011;70270;43.434;28.338;2024-03-17T02:47:48;38.72;;;23.65;;
80852;SDS011;70270;43.434;28.338;2024-03-17T02:50:34;42.30;;;24.75;;
80852;SDS011;70270;43.434;28.338;2024-03-17T02:53:18;42.47;;;23.98;;
80852;SDS011;70270;43.434;28.338;2024-03-17T02:56:03;44.83;;;24.17;;
80852;SDS011;70270;43.434;28.338;2024-03-17T02:58:48;40.83;;;24.80;;
80852;SDS011;70270;43.434;28.338;2024-03-17T03:01:33;40.58;;;23.55;;
80852;SDS011;70270;43.434;28.338;2024-03-17T03:04:18;52.83;;;32.33;;
80852;SDS011;70270;43.434;28.338;2024-03-17T03:07:04;42.25;;;25.05;;
80852;SDS011;70270;43.434;28.338;2024-03-17T03:09:48;39.60;;;23.92;;
80852;SDS011;70270;43.434;28.338;2024-03-17T03:12:35;38.83;;;22.17;;
80852;SDS011;70270;43.434;28.338;2024-03-17T03:15:20;37.03;;;21.95;;
80852;SDS011;70270;43.434;28.338;2024-03-17T03:18:05;36.33;;;22.67;;
80852;SDS011;70270;43.434;28.338;2024-03-17T03:20:50;35.67;;;21.65;;
80852;SDS011;70270;43.434;28.338;2024-03-17T03:23:38;35.10;;;21.05;;
80852;SDS011;70270;43.434;28.338;2024-03-17T03:26:23;34.92;;;22.92;;
80852;SDS011;70270;43.434;28.338;2024-03-17T03:29:07;35.95;;;21.45;;
80852;SDS011;70270;43.434;28.338;2024-03-17T03:31:52;32.97;;;21.55;;
80852;SDS011;70270;43.434;28.338;2024-03-17T03:34:36;38.35;;;21.85;;
80852;SDS011;70270;43.434;28.338;2024-03-17T03:37:21;38.22;;;22.85;;
80852;SDS011;70270;43.434;28.338;2024-03-17T03:40:06;38.40;;;23.65;;
80852;SDS011;70270;43.434;28.338;2024-03-17T03:42:59;33.97;;;20.83;;
80852;SDS011;70270;43.434;28.338;2024-03-17T03:45:45;38.28;;;23.00;;
80852;SDS011;70270;43.434;28.338;2024-03-17T03:48:30;37.45;;;22.42;;
80852;SDS011;70270;43.434;28.338;2024-03-17T03:51:14;37.28;;;21.58;;
80852;SDS011;70270;43.434;28.338;2024-03-17T03:53:59;38.83;;;22.50;;
80852;SDS011;70270;43.434;28.338;2024-03-17T03:56:43;36.22;;;21.55;;
80852;SDS011;70270;43.434;28.338;2024-03-17T03:59:28;42.17;;;26.25;;
80852;SDS011;70270;43.434;28.338;2024-03-17T04:02:13;43.03;;;25.83;;
80852;SDS011;70270;43.434;28.338;2024-03-17T04:04:58;39.35;;;24.80;;
80852;SDS011;70270;43.434;28.338;2024-03-17T04:07:42;42.92;;;24.13;;
80852;SDS011;70270;43.434;28.338;2024-03-17T04:10:30;44.47;;;24.42;;
80852;SDS011;70270;43.434;28.338;2024-03-17T04:13:14;35.03;;;21.83;;
80852;SDS011;70270;43.434;28.338;2024-03-17T04:15:59;49.80;;;26.33;;
80852;SDS011;70270;43.434;28.338;2024-03-17T04:18:45;40.72;;;25.52;;
80852;SDS011;70270;43.434;28.338;2024-03-17T04:21:29;36.33;;;22.27;;
80852;SDS011;70270;43.434;28.338;2024-03-17T04:24:14;38.85;;;21.20;;
80852;SDS011;70270;43.434;28.338;2024-03-17T04:26:58;41.45;;;23.85;;
80852;SDS011;70270;43.434;28.338;2024-03-17T04:29:43;41.08;;;25.25;;
80852;SDS011;70270;43.434;28.338;2024-03-17T04:32:32;42.55;;;25.45;;
80852;SDS011;70270;43.434;28.338;2024-03-17T04:35:17;42.35;;;23.83;;
80852;SDS011;70270;43.434;28.338;2024-03-17T04:38:01;42.53;;;26.70;;
80852;SDS011;70270;43.434;28.338;2024-03-17T04:40:46;37.00;;;21.73;;
80852;SDS011;70270;43.434;28.338;2024-03-17T04:43:31;43.15;;;23.88;;
80852;SDS011;70270;43.434;28.338;2024-03-17T04:46:16;39.67;;;23.83;;
80852;SDS011;70270;43.434;28.338;2024-03-17T04:49:00;37.35;;;24.17;;
80852;SDS011;70270;43.434;28.338;2024-03-17T04:51:47;41.30;;;24.08;;
80852;SDS011;70270;43.434;28.338;2024-03-17T04:54:31;37.17;;;23.02;;
80852;SDS011;70270;43.434;28.338;2024-03-17T04:57:16;43.15;;;25.08;;
80852;SDS011;70270;43.434;28.338;2024-03-17T05:00:00;48.40;;;29.02;;
80852;SDS011;70270;43.434;28.338;2024-03-17T05:02:45;52.67;;;30.40;;
80852;SDS011;70270;43.434;28.338;2024-03-17T05:05:29;56.72;;;35.88;;
80852;SDS011;70270;43.434;28.338;2024-03-17T05:08:14;49.63;;;32.97;;
80852;SDS011;70270;43.434;28.338;2024-03-17T05:11:02;61.97;;;36.58;;
80852;SDS011;70270;43.434;28.338;2024-03-17T05:13:51;88.10;;;48.72;;
80852;SDS011;70270;43.434;28.338;2024-03-17T05:16:36;139.13;;;74.05;;
80852;SDS011;70270;43.434;28.338;2024-03-17T05:19:20;69.88;;;39.30;;
80852;SDS011;70270;43.434;28.338;2024-03-17T05:22:05;49.65;;;29.35;;
80852;SDS011;70270;43.434;28.338;2024-03-17T05:24:49;49.08;;;29.15;;
80852;SDS011;70270;43.434;28.338;2024-03-17T05:27:34;35.05;;;23.58;;
80852;SDS011;70270;43.434;28.338;2024-03-17T05:30:18;29.23;;;20.42;;
80852;SDS011;70270;43.434;28.338;2024-03-17T05:33:03;30.70;;;22.33;;
80852;SDS011;70270;43.434;28.338;2024-03-17T05:35:55;33.53;;;21.27;;
80852;SDS011;70270;43.434;28.338;2024-03-17T05:38:41;31.85;;;21.33;;
80852;SDS011;70270;43.434;28.338;2024-03-17T05:41:26;32.65;;;22.27;;
80852;SDS011;70270;43.434;28.338;2024-03-17T05:44:12;28.48;;;19.83;;
80852;SDS011;70270;43.434;28.338;2024-03-17T05:46:57;32.00;;;20.17;;
80852;SDS011;70270;43.434;28.338;2024-03-17T05:49:43;31.63;;;20.52;;
80852;SDS011;70270;43.434;28.338;2024-03-17T05:52:27;34.20;;;22.35;;
80852;SDS011;70270;43.434;28.338;2024-03-17T05:55:12;32.65;;;21.58;;
80852;SDS011;70270;43.434;28.338;2024-03-17T05:57:56;34.90;;;23.58;;
80852;SDS011;70270;43.434;28.338;2024-03-17T06:00:41;35.13;;;23.25;;
80852;SDS011;70270;43.434;28.338;2024-03-17T06:03:26;34.92;;;21.75;;
80852;SDS011;70270;43.434;28.338;2024-03-17T06:06:10;33.88;;;20.92;;
80852;SDS011;70270;43.434;28.338;2024-03-17T06:08:56;36.03;;;21.98;;
80852;SDS011;70270;43.434;28.338;2024-03-17T06:11:40;32.38;;;20.65;;
80852;SDS011;70270;43.434;28.338;2024-03-17T06:14:25;33.38;;;21.50;;
80852;SDS011;70270;43.434;28.338;2024-03-17T06:17:09;32.35;;;21.98;;
80852;SDS011;70270;43.434;28.338;2024-03-17T06:19:53;43.42;;;25.58;;
80852;SDS011;70270;43.434;28.338;2024-03-17T06:22:38;33.22;;;20.75;;
80852;SDS011;70270;43.434;28.338;2024-03-17T06:25:23;24.15;;;16.13;;
80852;SDS011;70270;43.434;28.338;2024-03-17T06:28:08;29.20;;;19.92;;
80852;SDS011;70270;43.434;28.338;2024-03-17T06:30:59;32.80;;;19.92;;
80852;SDS011;70270;43.434;28.338;2024-03-17T06:33:45;32.33;;;20.50;;
80852;SDS011;70270;43.434;28.338;2024-03-17T06:36:30;32.38;;;18.65;;
80852;SDS011;70270;43.434;28.338;2024-03-17T06:39:15;33.47;;;21.45;;
80852;SDS011;70270;43.434;28.338;2024-03-17T06:42:00;37.83;;;20.42;;
80852;SDS011;70270;43.434;28.338;2024-03-17T06:44:45;34.42;;;22.40;;
80852;SDS011;70270;43.434;28.338;2024-03-17T06:47:29;28.27;;;20.10;;
80852;SDS011;70270;43.434;28.338;2024-03-17T06:50:13;28.02;;;19.80;;
80852;SDS011;70270;43.434;28.338;2024-03-17T06:52:59;36.25;;;23.23;;
80852;SDS011;70270;43.434;28.338;2024-03-17T06:55:43;32.50;;;21.67;;
80852;SDS011;70270;43.434;28.338;2024-03-17T06:58:29;28.80;;;18.80;;
80852;SDS011;70270;43.434;28.338;2024-03-17T07:01:15;33.03;;;20.80;;
80852;SDS011;70270;43.434;28.338;2024-03-17T07:04:01;29.33;;;19.83;;
80852;SDS011;70270;43.434;28.338;2024-03-17T07:06:45;32.78;;;21.67;;
80852;SDS011;70270;43.434;28.338;2024-03-17T07:09:30;31.33;;;21.30;;
80852;SDS011;70270;43.434;28.338;2024-03-17T07:12:14;30.23;;;21.27;;
80852;SDS011;70270;43.434;28.338;2024-03-17T07:14:59;33.92;;;21.98;;
80852;SDS011;70270;43.434;28.338;2024-03-17T07:17:43;32.22;;;21.85;;
80852;SDS011;70270;43.434;28.338;2024-03-17T07:20:28;32.63;;;20.08;;
80852;SDS011;70270;43.434;28.338;2024-03-17T07:23:12;30.95;;;20.83;;
80852;SDS011;70270;43.434;28.338;2024-03-17T07:26:00;25.00;;;19.08;;
80852;SDS011;70270;43.434;28.338;2024-03-17T07:28:45;29.90;;;19.17;;
80852;SDS011;70270;43.434;28.338;2024-03-17T07:31:31;25.05;;;17.20;;
80852;SDS011;70270;43.434;28.338;2024-03-17T07:34:16;28.00;;;17.95;;
80852;SDS011;70270;43.434;28.338;2024-03-17T07:37:01;26.05;;;18.95;;
80852;SDS011;70270;43.434;28.338;2024-03-17T07:39:47;28.20;;;16.05;;
80852;SDS011;70270;43.434;28.338;2024-03-17T07:42:33;20.80;;;15.60;;
80852;SDS011;70270;43.434;28.338;2024-03-17T07:45:18;23.70;;;17.75;;
80852;SDS011;70270;43.434;28.338;2024-03-17T07:48:03;24.75;;;17.48;;
80852;SDS011;70270;43.434;28.338;2024-03-17T07:50:53;27.38;;;17.83;;
80852;SDS011;70270;43.434;28.338;2024-03-17T07:53:39;23.73;;;18.65;;
80852;SDS011;70270;43.434;28.338;2024-03-17T07:56:25;24.80;;;18.52;;
80852;SDS011;70270;43.434;28.338;2024-03-17T07:59:10;20.95;;;15.70;;
80852;SDS011;70270;43.434;28.338;2024-03-17T08:02:01;22.95;;;16.23;;
80852;SDS011;70270;43.434;28.338;2024-03-17T08:04:46;24.13;;;17.73;;
80852;SDS011;70270;43.434;28.338;2024-03-17T08:07:31;19.70;;;13.98;;
80852;SDS011;70270;43.434;28.338;2024-03-17T08:10:16;21.40;;;15.00;;
80852;SDS011;70270;43.434;28.338;2024-03-17T08:13:02;24.27;;;17.23;;
80852;SDS011;70270;43.434;28.338;2024-03-17T08:15:54;20.00;;;14.05;;
80852;SDS011;70270;43.434;28.338;2024-03-17T08:18:40;22.23;;;15.85;;
80852;SDS011;70270;43.434;28.338;2024-03-17T08:21:24;20.48;;;13.98;;
80852;SDS011;70270;43.434;28.338;2024-03-17T08:24:12;19.20;;;14.85;;
80852;SDS011;70270;43.434;28.338;2024-03-17T08:26:57;19.17;;;14.07;;
80852;SDS011;70270;43.434;28.338;2024-03-17T08:29:41;21.33;;;15.15;;
80852;SDS011;70270;43.434;28.338;2024-03-17T08:32:26;16.85;;;12.75;;
80852;SDS011;70270;43.434;28.338;2024-03-17T08:35:10;22.92;;;15.07;;
80852;SDS011;70270;43.434;28.338;2024-03-17T08:37:55;21.77;;;15.15;;
80852;SDS011;70270;43.434;28.338;2024-03-17T08:40:40;33.97;;;16.13;;
80852;SDS011;70270;43.434;28.338;2024-03-17T08:43:26;22.35;;;15.27;;
80852;SDS011;70270;43.434;28.338;2024-03-17T08:46:11;23.65;;;14.77;;
80852;SDS011;70270;43.434;28.338;2024-03-17T08:48:58;21.65;;;13.73;;
80852;SDS011;70270;43.434;28.338;2024-03-17T08:51:42;20.50;;;13.98;;
80852;SDS011;70270;43.434;28.338;2024-03-17T08:54:27;24.02;;;16.05;;
80852;SDS011;70270;43.434;28.338;2024-03-17T08:57:11;24.98;;;15.25;;
80852;SDS011;70270;43.434;28.338;2024-03-17T08:59:55;27.52;;;17.58;;
80852;SDS011;70270;43.434;28.338;2024-03-17T09:02:40;22.58;;;14.55;;
80852;SDS011;70270;43.434;28.338;2024-03-17T09:05:25;27.90;;;18.90;;
80852;SDS011;70270;43.434;28.338;2024-03-17T09:08:20;24.13;;;15.20;;
80852;SDS011;70270;43.434;28.338;2024-03-17T09:11:08;27.52;;;17.70;;
80852;SDS011;70270;43.434;28.338;2024-03-17T09:13:56;47.63;;;26.83;;
80852;SDS011;70270;43.434;28.338;2024-03-17T09:16:42;37.92;;;21.48;;
80852;SDS011;70270;43.434;28.338;2024-03-17T09:19:27;31.25;;;21.15;;
80852;SDS011;70270;43.434;28.338;2024-03-17T09:22:13;26.38;;;16.35;;
80852;SDS011;70270;43.434;28.338;2024-03-17T09:24:58;26.48;;;17.98;;
80852;SDS011;70270;43.434;28.338;2024-03-17T09:27:42;40.08;;;22.27;;
80852;SDS011;70270;43.434;28.338;2024-03-17T09:30:27;26.63;;;17.58;;
80852;SDS011;70270;43.434;28.338;2024-03-17T09:33:13;25.38;;;17.02;;
80852;SDS011;70270;43.434;28.338;2024-03-17T09:36:01;22.13;;;15.00;;
80852;SDS011;70270;43.434;28.338;2024-03-17T09:38:50;22.90;;;15.65;;
80852;SDS011;70270;43.434;28.338;2024-03-17T09:41:35;21.10;;;13.07;;
80852;SDS011;70270;43.434;28.338;2024-03-17T09:44:22;24.13;;;15.18;;
80852;SDS011;70270;43.434;28.338;2024-03-17T09:47:07;24.25;;;16.02;;
80852;SDS011;70270;43.434;28.338;2024-03-17T09:49:55;25.88;;;18.38;;
80852;SDS011;70270;43.434;28.338;2024-03-17T09:52:40;23.95;;;14.90;;
80852;SDS011;70270;43.434;28.338;2024-03-17T09:55:26;27.15;;;16.98;;
80852;SDS011;70270;43.434;28.338;2024-03-17T09:58:20;24.73;;;16.00;;
80852;SDS011;70270;43.434;28.338;2024-03-17T10:01:05;25.92;;;14.25;;
80852;SDS011;70270;43.434;28.338;2024-03-17T10:03:50;25.08;;;16.98;;
80852;SDS011;70270;43.434;28.338;2024-03-17T10:06:44;22.23;;;16.70;;
80852;SDS011;70270;43.434;28.338;2024-03-17T10:09:30;25.45;;;18.67;;
80852;SDS011;70270;43.434;28.338;2024-03-17T10:15:13;24.65;;;15.30;;
80852;SDS011;70270;43.434;28.338;2024-03-17T10:17:59;22.08;;;14.65;;
80852;SDS011;70270;43.434;28.338;2024-03-17T10:20:44;21.27;;;14.07;;
80852;SDS011;70270;43.434;28.338;2024-03-17T10:23:28;25.20;;;14.85;;
80852;SDS011;70270;43.434;28.338;2024-03-17T10:26:13;26.52;;;16.83;;
80852;SDS011;70270;43.434;28.338;2024-03-17T10:28:59;22.13;;;16.00;;
80852;SDS011;70270;43.434;28.338;2024-03-17T10:31:43;22.60;;;15.98;;
80852;SDS011;70270;43.434;28.338;2024-03-17T10:34:29;27.15;;;17.48;;
80852;SDS011;70270;43.434;28.338;2024-03-17T10:37:20;23.08;;;15.10;;
80852;SDS011;70270;43.434;28.338;2024-03-17T10:40:10;25.52;;;17.00;;
80852;SDS011;70270;43.434;28.338;2024-03-17T10:43:00;24.20;;;14.98;;
80852;SDS011;70270;43.434;28.338;2024-03-17T10:45:47;27.02;;;18.23;;
80852;SDS011;70270;43.434;28.338;2024-03-17T10:48:31;24.38;;;17.08;;
80852;SDS011;70270;43.434;28.338;2024-03-17T10:51:19;26.42;;;17.50;;
80852;SDS011;70270;43.434;28.338;2024-03-17T10:54:04;21.80;;;15.00;;
80852;SDS011;70270;43.434;28.338;2024-03-17T10:56:49;26.23;;;17.58;;
80852;SDS011;70270;43.434;28.338;2024-03-17T10:59:38;24.38;;;16.23;;
80852;SDS011;70270;43.434;28.338;2024-03-17T11:02:25;24.83;;;17.23;;
80852;SDS011;70270;43.434;28.338;2024-03-17T11:05:21;25.58;;;17.15;;
80852;SDS011;70270;43.434;28.338;2024-03-17T11:08:09;24.52;;;16.17;;
80852;SDS011;70270;43.434;28.338;2024-03-17T11:11:01;25.52;;;16.40;;
80852;SDS011;70270;43.434;28.338;2024-03-17T11:13:47;27.60;;;18.10;;
80852;SDS011;70270;43.434;28.338;2024-03-17T11:16:32;24.02;;;15.27;;
80852;SDS011;70270;43.434;28.338;2024-03-17T11:19:16;27.90;;;17.23;;
80852;SDS011;70270;43.434;28.338;2024-03-17T11:22:41;20.75;;;14.10;;
80852;SDS011;70270;43.434;28.338;2024-03-17T11:28:43;23.77;;;14.90;;
80852;SDS011;70270;43.434;28.338;2024-03-17T11:31:32;19.75;;;13.55;;
80852;SDS011;70270;43.434;28.338;2024-03-17T11:40:26;23.17;;;15.27;;
80852;SDS011;70270;43.434;28.338;2024-03-17T11:43:12;23.27;;;14.35;;
80852;SDS011;70270;43.434;28.338;2024-03-17T11:46:01;23.88;;;16.50;;
80852;SDS011;70270;43.434;28.338;2024-03-17T11:48:49;20.83;;;14.73;;
80852;SDS011;70270;43.434;28.338;2024-03-17T11:51:34;22.50;;;15.25;;
80852;SDS011;70270;43.434;28.338;2024-03-17T11:54:22;18.40;;;12.90;;
80852;SDS011;70270;43.434;28.338;2024-03-17T11:59:57;21.58;;;14.98;;
80852;SDS011;70270;43.434;28.338;2024-03-17T12:02:41;23.88;;;14.52;;
80852;SDS011;70270;43.434;28.338;2024-03-17T12:05:26;20.42;;;13.50;;
80852;SDS011;70270;43.434;28.338;2024-03-17T12:08:20;24.02;;;15.15;;
80852;SDS011;70270;43.434;28.338;2024-03-17T12:11:14;22.52;;;15.10;;
80852;SDS011;70270;43.434;28.338;2024-03-17T12:14:15;19.95;;;13.05;;
80852;SDS011;70270;43.434;28.338;2024-03-17T12:17:04;24.00;;;14.13;;
80852;SDS011;70270;43.434;28.338;2024-03-17T12:19:53;23.92;;;14.57;;
80852;SDS011;70270;43.434;28.338;2024-03-17T12:22:39;22.77;;;14.27;;
80852;SDS011;70270;43.434;28.338;2024-03-17T12:25:27;23.45;;;14.55;;
80852;SDS011;70270;43.434;28.338;2024-03-17T12:28:16;22.15;;;15.05;;
80852;SDS011;70270;43.434;28.338;2024-03-17T12:31:01;18.40;;;12.25;;
80852;SDS011;70270;43.434;28.338;2024-03-17T12:33:46;19.88;;;13.23;;
80852;SDS011;70270;43.434;28.338;2024-03-17T12:36:30;23.25;;;15.45;;
80852;SDS011;70270;43.434;28.338;2024-03-17T12:42:13;19.17;;;14.90;;
80852;SDS011;70270;43.434;28.338;2024-03-17T12:45:01;25.90;;;15.60;;
80852;SDS011;70270;43.434;28.338;2024-03-17T12:47:47;21.05;;;15.32;;
80852;SDS011;70270;43.434;28.338;2024-03-17T12:50:36;23.88;;;15.60;;
80852;SDS011;70270;43.434;28.338;2024-03-17T12:53:20;22.25;;;13.80;;
80852;SDS011;70270;43.434;28.338;2024-03-17T12:56:06;26.73;;;16.25;;
80852;SDS011;70270;43.434;28.338;2024-03-17T12:59:09;20.65;;;14.13;;
80852;SDS011;70270;43.434;28.338;2024-03-17T13:02:13;24.92;;;15.68;;
80852;SDS011;70270;43.434;28.338;2024-03-17T13:05:14;20.95;;;13.82;;
80852;SDS011;70270;43.434;28.338;2024-03-17T13:08:02;22.35;;;14.48;;
80852;SDS011;70270;43.434;28.338;2024-03-17T13:10:47;24.48;;;15.23;;
80852;SDS011;70270;43.434;28.338;2024-03-17T13:13:32;20.42;;;15.00;;
80852;SDS011;70270;43.434;28.338;2024-03-17T13:16:16;23.65;;;16.00;;
80852;SDS011;70270;43.434;28.338;2024-03-17T13:19:01;18.50;;;14.95;;
80852;SDS011;70270;43.434;28.338;2024-03-17T13:21:46;20.13;;;13.55;;
80852;SDS011;70270;43.434;28.338;2024-03-17T13:24:31;23.30;;;14.25;;
80852;SDS011;70270;43.434;28.338;2024-03-17T13:27:15;23.85;;;14.70;;
80852;SDS011;70270;43.434;28.338;2024-03-17T13:30:00;21.30;;;13.63;;
80852;SDS011;70270;43.434;28.338;2024-03-17T13:32:44;25.88;;;15.90;;
80852;SDS011;70270;43.434;28.338;2024-03-17T13:35:32;27.83;;;16.98;;
80852;SDS011;70270;43.434;28.338;2024-03-17T13:38:18;22.50;;;14.77;;
80852;SDS011;70270;43.434;28.338;2024-03-17T13:41:03;20.30;;;13.65;;
80852;SDS011;70270;43.434;28.338;2024-03-17T13:43:48;25.38;;;15.60;;
80852;SDS011;70270;43.434;28.338;2024-03-17T13:46:33;24.30;;;15.35;;
80852;SDS011;70270;43.434;28.338;2024-03-17T13:49:18;24.10;;;15.30;;
80852;SDS011;70270;43.434;28.338;2024-03-17T13:52:02;23.95;;;15.25;;
80852;SDS011;70270;43.434;28.338;2024-03-17T13:54:48;20.27;;;15.32;;
80852;SDS011;70270;43.434;28.338;2024-03-17T13:57:33;25.73;;;17.00;;
80852;SDS011;70270;43.434;28.338;2024-03-17T14:00:18;24.70;;;15.80;;
80852;SDS011;70270;43.434;28.338;2024-03-17T14:03:05;25.67;;;17.05;;
80852;SDS011;70270;43.434;28.338;2024-03-17T14:05:49;29.20;;;15.80;;
80852;SDS011;70270;43.434;28.338;2024-03-17T14:08:34;33.22;;;18.15;;
80852;SDS011;70270;43.434;28.338;2024-03-17T14:11:19;26.02;;;16.10;;
80852;SDS011;70270;43.434;28.338;2024-03-17T14:14:04;28.17;;;16.65;;
80852;SDS011;70270;43.434;28.338;2024-03-17T14:16:49;24.83;;;16.90;;
80852;SDS011;70270;43.434;28.338;2024-03-17T14:19:34;29.70;;;18.63;;
80852;SDS011;70270;43.434;28.338;2024-03-17T14:22:18;29.85;;;18.02;;
80852;SDS011;70270;43.434;28.338;2024-03-17T14:25:06;36.45;;;22.48;;
80852;SDS011;70270;43.434;28.338;2024-03-17T14:27:51;40.13;;;22.98;;
80852;SDS011;70270;43.434;28.338;2024-03-17T14:30:36;32.58;;;17.80;;
80852;SDS011;70270;43.434;28.338;2024-03-17T14:33:20;30.25;;;19.30;;
80852;SDS011;70270;43.434;28.338;2024-03-17T14:36:05;33.97;;;19.52;;
80852;SDS011;70270;43.434;28.338;2024-03-17T14:38:50;29.30;;;19.85;;
80852;SDS011;70270;43.434;28.338;2024-03-17T14:41:36;29.90;;;18.33;;
80852;SDS011;70270;43.434;28.338;2024-03-17T14:44:21;32.85;;;19.00;;
80852;SDS011;70270;43.434;28.338;2024-03-17T14:47:07;29.98;;;17.80;;
80852;SDS011;70270;43.434;28.338;2024-03-17T14:49:51;26.40;;;18.20;;
80852;SDS011;70270;43.434;28.338;2024-03-17T14:52:37;27.13;;;19.02;;
80852;SDS011;70270;43.434;28.338;2024-03-17T14:55:22;26.42;;;17.98;;
80852;SDS011;70270;43.434;28.338;2024-03-17T14:58:07;30.10;;;19.30;;
80852;SDS011;70270;43.434;28.338;2024-03-17T15:00:51;28.60;;;18.48;;
80852;SDS011;70270;43.434;28.338;2024-03-17T15:03:36;28.17;;;19.27;;
80852;SDS011;70270;43.434;28.338;2024-03-17T15:06:21;33.10;;;19.48;;
80852;SDS011;70270;43.434;28.338;2024-03-17T15:09:06;29.58;;;18.67;;
80852;SDS011;70270;43.434;28.338;2024-03-17T15:11:52;33.03;;;20.75;;
80852;SDS011;70270;43.434;28.338;2024-03-17T15:14:36;27.15;;;17.88;;
80852;SDS011;70270;43.434;28.338;2024-03-17T15:17:22;28.60;;;17.20;;
80852;SDS011;70270;43.434;28.338;2024-03-17T15:20:07;31.83;;;17.83;;
80852;SDS011;70270;43.434;28.338;2024-03-17T15:23:00;32.25;;;19.95;;
80852;SDS011;70270;43.434;28.338;2024-03-17T15:25:45;32.65;;;18.73;;
80852;SDS011;70270;43.434;28.338;2024-03-17T15:28:31;31.50;;;19.35;;
80852;SDS011;70270;43.434;28.338;2024-03-17T15:31:15;32.10;;;19.90;;
80852;SDS011;70270;43.434;28.338;2024-03-17T15:36:46;34.28;;;21.13;;
80852;SDS011;70270;43.434;28.338;2024-03-17T15:39:33;31.63;;;19.25;;
80852;SDS011;70270;43.434;28.338;2024-03-17T15:42:17;37.15;;;22.52;;
80852;SDS011;70270;43.434;28.338;2024-03-17T15:45:02;32.35;;;20.88;;
80852;SDS011;70270;43.434;28.338;2024-03-17T15:47:47;35.35;;;21.45;;
80852;SDS011;70270;43.434;28.338;2024-03-17T15:50:32;30.70;;;19.30;;
80852;SDS011;70270;43.434;28.338;2024-03-17T15:53:16;30.92;;;18.73;;
80852;SDS011;70270;43.434;28.338;2024-03-17T15:56:01;38.08;;;20.55;;
80852;SDS011;70270;43.434;28.338;2024-03-17T15:58:47;35.15;;;20.83;;
80852;SDS011;70270;43.434;28.338;2024-03-17T16:01:31;34.42;;;18.80;;
80852;SDS011;70270;43.434;28.338;2024-03-17T16:04:16;30.52;;;19.58;;
80852;SDS011;70270;43.434;28.338;2024-03-17T16:07:01;36.35;;;20.45;;
80852;SDS011;70270;43.434;28.338;2024-03-17T16:09:47;34.42;;;19.40;;
80852;SDS011;70270;43.434;28.338;2024-03-17T16:12:32;41.80;;;22.85;;
80852;SDS011;70270;43.434;28.338;2024-03-17T16:15:17;39.25;;;22.75;;
80852;SDS011;70270;43.434;28.338;2024-03-17T16:18:05;41.47;;;22.88;;